createdAt,value
2023-05-08T00:00:38.247Z,0.60
2023-05-08T00:01:38.208Z,0.77
2023-05-08T00:02:38.203Z,0.65
2023-05-08T00:03:38.213Z,0.91
2023-05-08T00:04:38.159Z,0.97
2023-05-08T00:05:38.046Z,0.81
2023-05-08T00:06:38.007Z,0.70
2023-05-08T00:07:37.990Z,1.07
2023-05-08T00:08:38.014Z,0.68
2023-05-08T00:09:37.883Z,0.85
2023-05-08T00:10:37.856Z,0.91
2023-05-08T00:11:37.822Z,0.53
2023-05-08T00:12:37.841Z,0.56
2023-05-08T00:13:37.746Z,0.74
2023-05-08T00:14:37.700Z,0.57
2023-05-08T00:15:37.672Z,0.69
2023-05-08T00:16:37.644Z,0.85
2023-05-08T00:17:37.596Z,0.55
2023-05-08T00:18:37.502Z,0.66
2023-05-08T00:19:37.454Z,0.74
2023-05-08T00:20:37.431Z,0.62
2023-05-08T00:21:37.403Z,0.80
2023-05-08T00:22:37.367Z,0.70
2023-05-08T00:23:37.341Z,0.69
2023-05-08T00:24:37.325Z,0.77
2023-05-08T00:25:37.261Z,0.69
2023-05-08T00:26:37.229Z,0.76
2023-05-08T00:27:37.186Z,0.86
2023-05-08T00:28:37.141Z,1.33
2023-05-08T00:29:37.089Z,0.96
2023-05-08T00:30:37.034Z,0.60
2023-05-08T00:31:37.002Z,0.77
2023-05-08T00:32:37.059Z,0.70
2023-05-08T00:33:36.931Z,0.75
2023-05-08T00:34:36.899Z,0.74
2023-05-08T00:35:36.846Z,0.85
2023-05-08T00:36:36.822Z,0.61
2023-05-08T00:37:36.780Z,0.73
2023-05-08T00:38:36.745Z,0.62
2023-05-08T00:39:36.707Z,0.68
2023-05-08T00:40:36.699Z,0.73
2023-05-08T00:41:36.634Z,0.86
2023-05-08T00:42:36.575Z,1.24
2023-05-08T00:43:36.526Z,0.75
2023-05-08T00:44:36.495Z,0.59
2023-05-08T00:45:36.473Z,0.82
2023-05-08T00:46:36.451Z,0.76
2023-05-08T00:47:36.402Z,0.78
2023-05-08T00:48:36.332Z,0.84
2023-05-08T00:49:36.316Z,0.78
2023-05-08T00:50:36.262Z,0.70
2023-05-08T00:51:36.238Z,0.66
2023-05-08T00:52:36.205Z,0.57
2023-05-08T00:53:36.121Z,0.74
2023-05-08T00:54:36.038Z,0.67
2023-05-08T00:55:35.968Z,0.88
2023-05-08T00:56:35.898Z,0.57
2023-05-08T00:57:35.836Z,0.76
2023-05-08T00:58:35.786Z,0.72
2023-05-08T00:59:35.761Z,0.60
2023-05-08T01:00:35.687Z,0.65
2023-05-08T01:01:35.696Z,0.60
2023-05-08T01:02:35.680Z,0.76
2023-05-08T01:03:35.568Z,0.61
2023-05-08T01:04:35.431Z,0.80
2023-05-08T01:05:35.334Z,0.59
2023-05-08T01:06:35.245Z,0.73
2023-05-08T01:07:35.170Z,0.50
2023-05-08T01:08:35.112Z,0.45
2023-05-08T01:09:35.051Z,0.95
2023-05-08T01:10:34.977Z,1.03
2023-05-08T01:11:34.933Z,0.61
2023-05-08T01:12:34.857Z,0.76
2023-05-08T01:13:34.823Z,0.68
2023-05-08T01:14:34.814Z,0.71
2023-05-08T01:15:34.735Z,0.78
2023-05-08T01:16:34.640Z,0.63
2023-05-08T01:17:34.573Z,0.89
2023-05-08T01:18:34.448Z,0.58
2023-05-08T01:19:34.359Z,0.57
2023-05-08T01:20:34.315Z,0.83
2023-05-08T01:21:34.172Z,0.68
2023-05-08T01:22:34.167Z,0.84
2023-05-08T01:23:34.130Z,0.84
2023-05-08T01:24:34.112Z,0.84
2023-05-08T01:25:33.990Z,0.73
2023-05-08T01:26:33.890Z,0.78
2023-05-08T01:27:33.783Z,0.62
2023-05-08T01:28:33.687Z,0.64
2023-05-08T01:29:33.604Z,0.91
2023-05-08T01:30:33.537Z,0.76
2023-05-08T01:31:33.463Z,0.51
2023-05-08T01:32:33.396Z,0.92
2023-05-08T01:33:33.407Z,0.73
2023-05-08T01:34:33.236Z,0.66
2023-05-08T01:35:33.148Z,0.81
2023-05-08T01:36:33.033Z,0.66
2023-05-08T01:37:32.963Z,0.65
2023-05-08T01:38:32.893Z,0.83
2023-05-08T01:39:32.778Z,0.54
2023-05-08T01:40:32.694Z,0.71
2023-05-08T01:41:32.629Z,0.77
2023-05-08T01:42:32.516Z,0.74
2023-05-08T01:43:32.437Z,0.66
2023-05-08T01:44:32.334Z,0.84
2023-05-08T01:45:32.283Z,0.60
2023-05-08T01:46:32.279Z,0.65
2023-05-08T01:47:32.197Z,0.78
2023-05-08T01:48:32.086Z,0.57
2023-05-08T01:49:32.013Z,1.01
2023-05-08T01:50:31.893Z,0.70
2023-05-08T01:51:31.797Z,0.91
2023-05-08T01:52:31.697Z,0.81
2023-05-08T01:53:31.655Z,0.76
2023-05-08T01:54:31.615Z,0.66
2023-05-08T01:55:31.597Z,0.76
2023-05-08T01:56:31.492Z,0.61
2023-05-08T01:57:31.367Z,0.84
2023-05-08T01:58:31.274Z,0.81
2023-05-08T01:59:31.180Z,0.67
2023-05-08T02:00:31.105Z,0.42
2023-05-08T02:01:30.997Z,0.70
2023-05-08T02:02:31.034Z,0.77
2023-05-08T02:03:31.030Z,0.68
2023-05-08T02:04:30.930Z,1.04
2023-05-08T02:05:30.831Z,0.59
2023-05-08T02:06:30.722Z,0.92
2023-05-08T02:07:30.611Z,0.70
2023-05-08T02:08:30.539Z,0.69
2023-05-08T02:09:30.456Z,0.59
2023-05-08T02:10:30.359Z,0.70
2023-05-08T02:11:30.312Z,0.73
2023-05-08T02:12:30.218Z,0.47
2023-05-08T02:13:30.173Z,0.57
2023-05-08T02:14:30.085Z,0.51
2023-05-08T02:15:30.001Z,0.80
2023-05-08T02:16:30.049Z,0.56
2023-05-08T02:17:29.851Z,0.78
2023-05-08T02:18:29.757Z,0.68
2023-05-08T02:19:29.710Z,0.46
2023-05-08T02:20:29.680Z,0.88
2023-05-08T02:21:29.613Z,0.87
2023-05-08T02:22:29.494Z,0.71
2023-05-08T02:23:29.409Z,0.59
2023-05-08T02:24:29.341Z,0.57
2023-05-08T02:25:29.268Z,0.73
2023-05-08T02:26:29.171Z,0.70
2023-05-08T02:27:29.122Z,0.71
2023-05-08T02:28:29.110Z,0.75
2023-05-08T02:29:29.089Z,0.65
2023-05-08T02:30:29.081Z,0.71
2023-05-08T02:31:29.045Z,0.80
2023-05-08T02:32:28.923Z,0.64
2023-05-08T02:33:28.818Z,0.73
2023-05-08T02:34:28.742Z,0.75
2023-05-08T02:35:28.672Z,0.71
2023-05-08T02:36:28.597Z,0.65
2023-05-08T02:37:28.575Z,0.70
2023-05-08T02:38:28.538Z,0.72
2023-05-08T02:39:28.476Z,0.72
2023-05-08T02:40:28.454Z,0.87
2023-05-08T02:41:28.433Z,0.66
2023-05-08T02:42:28.382Z,0.61
2023-05-08T02:43:28.335Z,0.62
2023-05-08T02:44:28.283Z,0.94
2023-05-08T02:45:28.181Z,0.70
2023-05-08T02:46:28.185Z,0.59
2023-05-08T02:47:28.076Z,0.83
2023-05-08T02:48:27.956Z,0.89
2023-05-08T02:49:27.894Z,0.77
2023-05-08T02:50:27.877Z,0.58
2023-05-08T02:51:27.816Z,0.73
2023-05-08T02:52:27.754Z,0.55
2023-05-08T02:53:27.701Z,0.68
2023-05-08T02:54:27.625Z,0.68
2023-05-08T02:55:27.553Z,0.61
2023-05-08T02:56:27.483Z,0.76
2023-05-08T02:57:27.433Z,0.65
2023-05-08T02:58:27.366Z,0.63
2023-05-08T02:59:27.302Z,0.89
2023-05-08T03:00:27.209Z,0.84
2023-05-08T03:01:27.250Z,0.88
2023-05-08T03:02:27.170Z,0.64
2023-05-08T03:03:27.229Z,0.54
2023-05-08T03:04:27.014Z,0.67
2023-05-08T03:05:26.950Z,0.55
2023-05-08T03:06:26.898Z,1.06
2023-05-08T03:07:26.871Z,0.73
2023-05-08T03:08:26.831Z,0.94
2023-05-08T03:09:26.823Z,0.60
2023-05-08T03:10:26.820Z,0.61
2023-05-08T03:11:26.697Z,0.72
2023-05-08T03:12:26.613Z,0.79
2023-05-08T03:13:26.554Z,0.66
2023-05-08T03:14:26.475Z,0.80
2023-05-08T03:15:26.406Z,0.72
2023-05-08T03:16:26.448Z,0.93
2023-05-08T03:17:26.288Z,0.60
2023-05-08T03:18:26.192Z,0.69
2023-05-08T03:19:26.161Z,0.77
2023-05-08T03:20:26.162Z,0.75
2023-05-08T03:21:26.091Z,1.02
2023-05-08T03:22:26.025Z,0.74
2023-05-08T03:23:25.950Z,0.58
2023-05-08T03:24:25.870Z,0.58
2023-05-08T03:25:25.782Z,1.00
2023-05-08T03:26:25.695Z,0.75
2023-05-08T03:27:25.613Z,0.59
2023-05-08T03:28:25.595Z,1.06
2023-05-08T03:29:25.587Z,0.64
2023-05-08T03:30:25.576Z,0.75
2023-05-08T03:31:25.566Z,0.55
2023-05-08T03:32:25.483Z,0.87
2023-05-08T03:33:25.396Z,1.01
2023-05-08T03:34:25.351Z,0.76
2023-05-08T03:35:25.277Z,0.58
2023-05-08T03:36:25.186Z,0.63
2023-05-08T03:37:25.092Z,0.69
2023-05-08T03:38:25.003Z,0.65
2023-05-08T03:39:24.991Z,0.66
2023-05-08T03:40:24.978Z,0.75
2023-05-08T03:41:24.956Z,0.76
2023-05-08T03:42:24.948Z,0.64
2023-05-08T03:43:24.853Z,0.46
2023-05-08T03:44:24.780Z,0.57
2023-05-08T03:45:24.710Z,0.75
2023-05-08T03:46:24.708Z,0.70
2023-05-08T03:47:24.587Z,0.53
2023-05-08T03:48:24.422Z,0.69
2023-05-08T03:49:24.389Z,0.64
2023-05-08T03:50:24.303Z,0.51
2023-05-08T03:51:24.208Z,0.84
2023-05-08T03:52:24.110Z,0.94
2023-05-08T03:53:24.029Z,0.50
2023-05-08T03:54:23.941Z,0.61
2023-05-08T03:55:23.871Z,0.67
2023-05-08T03:56:25.937Z,0.68
2023-05-08T03:57:23.750Z,0.80
2023-05-08T03:58:23.670Z,0.51
2023-05-08T03:59:23.573Z,0.72
2023-05-08T04:00:23.466Z,0.59
2023-05-08T04:01:23.401Z,0.66
2023-05-08T04:02:23.379Z,0.66
2023-05-08T04:03:23.330Z,0.65
2023-05-08T04:04:23.147Z,0.66
2023-05-08T04:05:23.183Z,0.52
2023-05-08T04:06:23.093Z,0.51
2023-05-08T04:07:23.065Z,0.82
2023-05-08T04:08:23.025Z,0.67
2023-05-08T04:09:22.886Z,0.50
2023-05-08T04:10:22.786Z,0.68
2023-05-08T04:11:22.683Z,0.83
2023-05-08T04:12:22.583Z,0.98
2023-05-08T04:13:22.642Z,0.61
2023-05-08T04:14:22.455Z,0.62
2023-05-08T04:15:22.356Z,0.76
2023-05-08T04:16:22.314Z,0.78
2023-05-08T04:17:22.139Z,0.60
2023-05-08T04:18:22.022Z,0.67
2023-05-08T04:19:21.991Z,0.75
2023-05-08T04:20:21.889Z,0.74
2023-05-08T04:21:21.774Z,0.42
2023-05-08T04:22:21.657Z,0.71
2023-05-08T04:23:21.550Z,0.57
2023-05-08T04:24:21.448Z,0.61
2023-05-08T04:25:21.398Z,0.66
2023-05-08T04:26:21.400Z,0.64
2023-05-08T04:27:21.306Z,0.45
2023-05-08T04:28:21.237Z,0.57
2023-05-08T04:29:21.161Z,0.64
2023-05-08T04:30:21.074Z,0.58
2023-05-08T04:31:21.006Z,0.70
2023-05-08T04:32:20.876Z,0.54
2023-05-08T04:33:20.901Z,0.67
2023-05-08T04:34:20.899Z,0.97
2023-05-08T04:35:20.703Z,0.53
2023-05-08T04:36:20.613Z,0.47
2023-05-08T04:37:20.520Z,0.58
2023-05-08T04:38:20.410Z,0.79
2023-05-08T04:39:20.307Z,0.82
2023-05-08T04:40:20.255Z,0.59
2023-05-08T04:41:20.193Z,0.51
2023-05-08T04:42:20.058Z,0.43
2023-05-08T04:43:19.932Z,0.71
2023-05-08T04:44:19.820Z,0.51
2023-05-08T04:45:19.728Z,0.67
2023-05-08T04:46:19.730Z,0.79
2023-05-08T04:47:19.597Z,0.70
2023-05-08T04:48:19.466Z,0.54
2023-05-08T04:49:19.363Z,0.70
2023-05-08T04:50:19.322Z,0.81
2023-05-08T04:51:19.153Z,0.77
2023-05-08T04:52:19.127Z,0.84
2023-05-08T04:53:19.112Z,0.67
2023-05-08T04:54:19.092Z,0.74
2023-05-08T04:55:19.089Z,0.58
2023-05-08T04:56:19.134Z,0.78
2023-05-08T04:57:19.067Z,0.47
2023-05-08T04:58:19.024Z,0.62
2023-05-08T04:59:19.019Z,0.83
2023-05-08T05:00:19.017Z,0.74
2023-05-08T05:01:19.000Z,0.54
2023-05-08T05:02:19.024Z,0.63
2023-05-08T05:03:18.915Z,0.69
2023-05-08T05:04:18.807Z,0.67
2023-05-08T05:05:18.746Z,0.74
2023-05-08T05:06:18.686Z,0.58
2023-05-08T05:07:18.624Z,0.69
2023-05-08T05:08:18.532Z,0.60
2023-05-08T05:09:18.459Z,0.56
2023-05-08T05:10:18.416Z,0.63
2023-05-08T05:11:18.404Z,0.83
2023-05-08T05:12:18.434Z,0.64
2023-05-08T05:13:18.306Z,0.66
2023-05-08T05:14:18.176Z,0.42
2023-05-08T05:15:18.085Z,0.57
2023-05-08T05:16:18.089Z,0.56
2023-05-08T05:17:17.916Z,0.48
2023-05-08T05:18:17.876Z,0.55
2023-05-08T05:19:17.869Z,0.70
2023-05-08T05:20:17.857Z,0.52
2023-05-08T05:21:17.834Z,0.55
2023-05-08T05:22:17.729Z,0.93
2023-05-08T05:23:17.669Z,0.68
2023-05-08T05:24:17.538Z,0.53
2023-05-08T05:25:17.427Z,0.99
2023-05-08T05:26:17.318Z,0.76
2023-05-08T05:27:18.312Z,0.89
2023-05-08T05:28:17.440Z,1.05
2023-05-08T05:29:17.311Z,0.85
2023-05-08T05:30:17.235Z,1.02
2023-05-08T05:31:17.158Z,0.67
2023-05-08T05:32:17.030Z,1.07
2023-05-08T05:33:16.978Z,1.00
2023-05-08T05:34:16.944Z,0.66
2023-05-08T05:35:16.885Z,1.00
2023-05-08T05:36:16.781Z,1.15
2023-05-08T05:37:16.703Z,1.32
2023-05-08T05:38:17.556Z,0.76
2023-05-08T05:39:16.490Z,0.93
2023-05-08T05:40:16.399Z,0.97
2023-05-08T05:41:16.377Z,0.87
2023-05-08T05:42:16.261Z,1.11
2023-05-08T05:43:16.187Z,1.12
2023-05-08T05:44:16.083Z,0.80
2023-05-08T05:45:17.559Z,0.87
2023-05-08T05:46:15.928Z,0.77
2023-05-08T05:47:16.007Z,0.94
2023-05-08T05:48:15.749Z,0.89
2023-05-08T05:49:15.652Z,0.74
2023-05-08T05:50:15.570Z,1.16
2023-05-08T05:51:15.553Z,0.92
2023-05-08T05:52:15.543Z,0.88
2023-05-08T05:53:15.458Z,1.19
2023-05-08T05:54:15.365Z,0.88
2023-05-08T05:55:15.481Z,0.86
2023-05-08T05:56:15.295Z,0.85
2023-05-08T05:57:15.184Z,0.66
2023-05-08T05:58:15.077Z,0.77
2023-05-08T05:59:15.038Z,1.03
2023-05-08T06:00:15.018Z,0.80
2023-05-08T06:01:15.041Z,1.00
2023-05-08T06:02:14.947Z,0.78
2023-05-08T06:03:14.956Z,1.13
2023-05-08T06:04:14.852Z,0.69
2023-05-08T06:05:14.808Z,0.87
2023-05-08T06:06:14.632Z,0.75
2023-05-08T06:07:14.572Z,0.79
2023-05-08T06:08:14.548Z,1.03
2023-05-08T06:09:14.506Z,1.14
2023-05-08T06:10:14.484Z,1.00
2023-05-08T06:11:14.459Z,0.98
2023-05-08T06:12:14.438Z,1.07
2023-05-08T06:13:14.404Z,0.72
2023-05-08T06:14:14.280Z,0.75
2023-05-08T06:15:14.348Z,1.04
2023-05-08T06:16:14.113Z,0.93
2023-05-08T06:17:14.113Z,1.03
2023-05-08T06:18:14.048Z,1.03
2023-05-08T06:19:13.933Z,0.98
2023-05-08T06:20:13.840Z,0.94
2023-05-08T06:21:13.727Z,0.84
2023-05-08T06:22:13.667Z,0.77
2023-05-08T06:23:13.537Z,0.79
2023-05-08T06:24:13.482Z,1.34
2023-05-08T06:25:13.660Z,0.94
2023-05-08T06:26:13.401Z,1.64
2023-05-08T06:27:13.362Z,1.11
2023-05-08T06:28:13.281Z,2.03
2023-05-08T06:29:13.194Z,1.67
2023-05-08T06:30:13.152Z,1.76
2023-05-08T06:31:13.184Z,1.97
2023-05-08T06:32:13.052Z,2.07
2023-05-08T06:33:12.939Z,1.97
2023-05-08T06:34:12.884Z,2.11
2023-05-08T06:35:13.038Z,2.33
2023-05-08T06:36:12.814Z,2.24
2023-05-08T06:37:12.787Z,1.89
2023-05-08T06:38:12.806Z,2.26
2023-05-08T06:39:12.714Z,2.35
2023-05-08T06:40:13.064Z,1.86
2023-05-08T06:41:15.046Z,2.09
2023-05-08T06:42:12.543Z,1.88
2023-05-08T06:43:12.455Z,2.27
2023-05-08T06:44:12.358Z,1.80
2023-05-08T06:45:12.634Z,1.65
2023-05-08T06:46:12.201Z,1.86
2023-05-08T06:47:12.058Z,1.86
2023-05-08T06:48:11.960Z,1.85
2023-05-08T06:49:11.854Z,2.06
2023-05-08T06:50:11.753Z,2.13
2023-05-08T06:51:11.651Z,2.28
2023-05-08T06:52:11.544Z,2.13
2023-05-08T06:53:11.443Z,2.01
2023-05-08T06:54:11.334Z,2.33
2023-05-08T06:55:11.443Z,2.08
2023-05-08T06:56:11.120Z,1.84
2023-05-08T06:57:12.000Z,1.98
2023-05-08T06:58:11.055Z,2.34
2023-05-08T06:59:10.789Z,2.33
2023-05-08T07:00:10.678Z,1.98
2023-05-08T07:01:10.679Z,2.00
2023-05-08T07:02:10.473Z,2.20
2023-05-08T07:03:10.392Z,1.83
2023-05-08T07:04:10.245Z,2.37
2023-05-08T07:05:10.221Z,1.98
2023-05-08T07:06:09.998Z,2.36
2023-05-08T07:07:09.873Z,2.05
2023-05-08T07:08:09.766Z,2.06
2023-05-08T07:09:09.650Z,1.74
2023-05-08T07:10:09.530Z,2.17
2023-05-08T07:11:09.405Z,2.44
2023-05-08T07:12:09.310Z,2.04
2023-05-08T07:13:09.309Z,2.18
2023-05-08T07:14:09.052Z,2.89
2023-05-08T07:15:24.052Z,1.92
2023-05-08T07:16:09.823Z,1.99
2023-05-08T07:17:08.711Z,2.02
2023-05-08T07:18:08.605Z,2.23
2023-05-08T07:19:08.469Z,2.21
2023-05-08T07:20:08.355Z,2.16
2023-05-08T07:21:08.214Z,1.66
2023-05-08T07:22:08.165Z,2.14
2023-05-08T07:23:07.978Z,2.36
2023-05-08T07:24:07.879Z,2.17
2023-05-08T07:25:07.755Z,2.15
2023-05-08T07:26:07.636Z,2.92
2023-05-08T07:27:07.512Z,2.19
2023-05-08T07:28:07.401Z,1.86
2023-05-08T07:29:07.285Z,2.17
2023-05-08T07:30:07.178Z,1.82
2023-05-08T07:31:07.190Z,2.37
2023-05-08T07:32:06.982Z,2.22
2023-05-08T07:33:06.870Z,2.04
2023-05-08T07:34:06.725Z,2.16
2023-05-08T07:35:08.364Z,2.35
2023-05-08T07:36:06.485Z,2.07
2023-05-08T07:37:06.382Z,2.29
2023-05-08T07:38:06.298Z,2.28
2023-05-08T07:39:06.173Z,2.14
2023-05-08T07:40:06.771Z,1.94
2023-05-08T07:41:06.013Z,1.86
2023-05-08T07:42:06.692Z,1.73
2023-05-08T07:43:05.746Z,2.10
2023-05-08T07:44:05.648Z,1.79
2023-05-08T07:45:05.538Z,2.00
2023-05-08T07:46:05.449Z,1.76
2023-05-08T07:47:05.401Z,2.04
2023-05-08T07:48:05.274Z,1.76
2023-05-08T07:49:05.135Z,1.72
2023-05-08T07:50:05.035Z,2.25
2023-05-08T07:51:04.929Z,2.15
2023-05-08T07:52:04.925Z,1.55
2023-05-08T07:53:04.727Z,1.75
2023-05-08T07:54:04.622Z,2.14
2023-05-08T07:55:04.516Z,1.76
2023-05-08T07:56:04.413Z,1.96
2023-05-08T07:57:04.300Z,1.97
2023-05-08T07:58:04.205Z,2.03
2023-05-08T07:59:04.101Z,1.81
2023-05-08T08:00:04.001Z,1.87
2023-05-08T08:01:03.926Z,1.86
2023-05-08T08:02:03.794Z,1.87
2023-05-08T08:03:03.757Z,1.70
2023-05-08T08:04:03.684Z,2.14
2023-05-08T08:05:03.478Z,2.05
2023-05-08T08:06:03.397Z,1.74
2023-05-08T08:07:03.264Z,1.48
2023-05-08T08:08:03.152Z,1.85
2023-05-08T08:09:03.049Z,1.96
2023-05-08T08:10:02.953Z,2.35
2023-05-08T08:11:03.900Z,1.72
2023-05-08T08:12:02.729Z,1.89
2023-05-08T08:13:02.684Z,2.16
2023-05-08T08:14:02.522Z,2.46
2023-05-08T08:15:02.447Z,1.94
2023-05-08T08:16:02.306Z,1.94
2023-05-08T08:17:02.246Z,2.00
2023-05-08T08:18:02.185Z,1.70
2023-05-08T08:19:01.987Z,1.85
2023-05-08T08:20:01.904Z,2.18
2023-05-08T08:21:01.769Z,2.04
2023-05-08T08:22:01.678Z,2.07
2023-05-08T08:23:01.540Z,1.93
2023-05-08T08:24:01.513Z,1.89
2023-05-08T08:25:01.316Z,1.62
2023-05-08T08:26:01.198Z,1.90
2023-05-08T08:27:01.093Z,2.04
2023-05-08T08:28:00.987Z,1.99
2023-05-08T08:29:00.874Z,1.42
2023-05-08T08:30:16.113Z,1.74
2023-05-08T08:31:01.742Z,2.40
2023-05-08T08:32:00.539Z,1.90
2023-05-08T08:33:00.554Z,1.83
2023-05-08T08:34:00.322Z,1.69
2023-05-08T08:35:00.219Z,2.08
2023-05-08T08:36:00.089Z,1.84
2023-05-08T08:36:59.969Z,1.93
2023-05-08T08:37:59.872Z,2.03
2023-05-08T08:38:59.751Z,1.69
2023-05-08T08:39:59.759Z,1.79
2023-05-08T08:40:59.556Z,1.79
2023-05-08T08:41:59.502Z,1.83
2023-05-08T08:42:59.388Z,1.53
2023-05-08T08:43:59.299Z,2.01
2023-05-08T08:44:59.222Z,1.47
2023-05-08T08:45:59.197Z,1.72
2023-05-08T08:46:59.036Z,2.02
2023-05-08T08:47:58.980Z,1.67
2023-05-08T08:48:58.874Z,2.95
2023-05-08T08:49:58.809Z,1.99
2023-05-08T08:50:58.699Z,1.51
2023-05-08T08:51:58.611Z,5.23
2023-05-08T08:52:58.545Z,1.75
2023-05-08T08:53:58.467Z,1.96
2023-05-08T08:54:58.387Z,1.83
2023-05-08T08:55:58.399Z,1.31
2023-05-08T08:56:58.229Z,1.62
2023-05-08T08:57:58.155Z,1.58
2023-05-08T08:58:58.084Z,1.71
2023-05-08T08:59:58.012Z,1.79
2023-05-08T09:00:57.952Z,1.53
2023-05-08T09:01:57.891Z,1.50
2023-05-08T09:02:58.009Z,1.88
2023-05-08T09:03:57.893Z,1.59
2023-05-08T09:04:57.704Z,1.99
2023-05-08T09:05:57.561Z,1.95
2023-05-08T09:06:57.493Z,1.63
2023-05-08T09:07:57.425Z,1.96
2023-05-08T09:08:57.356Z,1.53
2023-05-08T09:09:58.239Z,2.02
2023-05-08T09:10:57.133Z,1.67
2023-05-08T09:11:57.092Z,1.61
2023-05-08T09:13:56.804Z,1.90
2023-05-08T09:14:56.685Z,2.25
2023-05-08T09:15:56.597Z,1.75
2023-05-08T09:16:56.513Z,1.71
2023-05-08T09:17:56.492Z,1.35
2023-05-08T09:18:56.263Z,1.48
2023-05-08T09:19:56.127Z,2.01
2023-05-08T09:20:56.022Z,1.56
2023-05-08T09:21:56.000Z,2.22
2023-05-08T09:22:55.790Z,1.56
2023-05-08T09:23:56.247Z,1.89
2023-05-08T09:24:56.305Z,1.51
2023-05-08T09:25:55.526Z,1.41
2023-05-08T09:26:55.460Z,1.61
2023-05-08T09:27:55.476Z,1.66
2023-05-08T09:28:55.316Z,1.48
2023-05-08T09:29:56.202Z,1.75
2023-05-08T09:30:55.085Z,1.60
2023-05-08T09:31:55.116Z,1.86
2023-05-08T09:32:54.883Z,1.25
2023-05-08T09:33:54.750Z,1.53
2023-05-08T09:34:54.694Z,2.15
2023-05-08T09:35:54.530Z,1.57
2023-05-08T09:36:54.427Z,1.66
2023-05-08T09:37:55.049Z,1.95
2023-05-08T09:38:54.217Z,1.88
2023-05-08T09:39:54.172Z,1.30
2023-05-08T09:40:54.086Z,1.50
2023-05-08T09:41:54.027Z,1.57
2023-05-08T09:42:53.995Z,1.61
2023-05-08T09:43:53.998Z,1.55
2023-05-08T09:44:53.888Z,1.33
2023-05-08T09:45:53.850Z,1.43
2023-05-08T09:46:53.762Z,1.43
2023-05-08T09:47:53.866Z,1.25
2023-05-08T09:48:53.659Z,2.26
2023-05-08T09:49:53.613Z,1.20
2023-05-08T09:50:53.558Z,1.45
2023-05-08T09:51:53.522Z,1.44
2023-05-08T09:52:53.475Z,1.47
2023-05-08T09:53:53.408Z,1.53
2023-05-08T09:54:53.351Z,1.33
2023-05-08T09:55:53.308Z,1.71
2023-05-08T09:56:53.251Z,1.59
2023-05-08T09:57:53.194Z,1.32
2023-05-08T09:58:53.147Z,1.57
2023-05-08T09:59:53.196Z,1.59
2023-05-08T10:00:53.307Z,1.46
2023-05-08T10:01:53.020Z,2.59
2023-05-08T10:02:52.986Z,1.68
2023-05-08T10:03:52.890Z,1.33
2023-05-08T10:04:52.854Z,1.75
2023-05-08T10:05:52.782Z,1.53
2023-05-08T10:06:54.506Z,1.14
2023-05-08T10:07:52.649Z,1.26
2023-05-08T10:08:52.518Z,1.41
2023-05-08T10:09:52.389Z,1.39
2023-05-08T10:10:52.277Z,1.15
2023-05-08T10:11:52.206Z,1.60
2023-05-08T10:12:52.059Z,1.28
2023-05-08T10:13:51.929Z,1.39
2023-05-08T10:14:51.820Z,1.87
2023-05-08T10:15:51.796Z,1.60
2023-05-08T10:16:51.592Z,1.57
2023-05-08T10:17:51.498Z,1.86
2023-05-08T10:18:51.353Z,1.56
2023-05-08T10:19:51.247Z,1.82
2023-05-08T10:20:51.125Z,1.71
2023-05-08T10:21:51.008Z,1.46
2023-05-08T10:22:50.885Z,1.50
2023-05-08T10:23:50.797Z,1.46
2023-05-08T10:24:50.678Z,1.85
2023-05-08T10:25:51.474Z,1.56
2023-05-08T10:27:02.978Z,1.40
2023-05-08T10:27:51.310Z,1.40
2023-05-08T10:28:50.200Z,1.34
2023-05-08T10:29:50.076Z,1.39
2023-05-08T10:30:50.013Z,1.80
2023-05-08T10:31:49.933Z,1.71
2023-05-08T10:32:49.782Z,1.56
2023-05-08T10:33:49.608Z,1.34
2023-05-08T10:34:49.503Z,1.27
2023-05-08T10:35:49.391Z,1.58
2023-05-08T10:36:49.286Z,1.53
2023-05-08T10:37:49.150Z,1.53
2023-05-08T10:38:49.032Z,1.41
2023-05-08T10:39:48.927Z,1.51
2023-05-08T10:40:48.810Z,1.66
2023-05-08T10:41:48.694Z,1.21
2023-05-08T10:42:48.574Z,1.31
2023-05-08T10:43:48.465Z,1.43
2023-05-08T10:44:48.378Z,1.37
2023-05-08T10:45:48.247Z,1.55
2023-05-08T10:46:48.196Z,1.43
2023-05-08T10:47:48.103Z,1.47
2023-05-08T10:48:47.905Z,1.90
2023-05-08T10:49:47.783Z,1.43
2023-05-08T10:50:47.663Z,1.10
2023-05-08T10:51:47.542Z,1.44
2023-05-08T10:52:47.431Z,1.56
2023-05-08T10:53:47.321Z,1.62
2023-05-08T10:54:47.191Z,1.50
2023-05-08T10:55:47.090Z,1.07
2023-05-08T10:56:47.034Z,1.41
2023-05-08T10:57:46.980Z,1.56
2023-05-08T10:58:46.920Z,1.69
2023-05-08T10:59:46.879Z,1.29
2023-05-08T11:00:46.827Z,1.27
2023-05-08T11:01:46.804Z,1.58
2023-05-08T11:02:46.756Z,1.45
2023-05-08T11:03:46.846Z,0.94
2023-05-08T11:04:46.690Z,1.32
2023-05-08T11:05:46.593Z,1.02
2023-05-08T11:06:46.536Z,1.43
2023-05-08T11:07:46.441Z,1.74
2023-05-08T11:08:46.387Z,1.35
2023-05-08T11:09:46.311Z,2.57
2023-05-08T11:10:46.270Z,1.58
2023-05-08T11:11:46.205Z,1.36
2023-05-08T11:12:46.172Z,1.36
2023-05-08T11:13:46.103Z,1.37
2023-05-08T11:14:46.040Z,1.72
2023-05-08T11:15:46.072Z,1.82
2023-05-08T11:16:46.001Z,1.20
2023-05-08T11:17:45.918Z,1.62
2023-05-08T11:18:49.437Z,1.93
2023-05-08T11:19:45.677Z,1.71
2023-05-08T11:20:45.560Z,2.16
2023-05-08T11:21:45.451Z,1.59
2023-05-08T11:22:45.320Z,1.55
2023-05-08T11:23:45.203Z,1.35
2023-05-08T11:24:45.090Z,1.45
2023-05-08T11:25:44.974Z,1.65
2023-05-08T11:26:44.847Z,1.09
2023-05-08T11:27:44.722Z,1.57
2023-05-08T11:28:44.602Z,1.68
2023-05-08T11:29:44.491Z,0.98
2023-05-08T11:30:44.359Z,1.42
2023-05-08T11:31:44.273Z,1.45
2023-05-08T11:32:44.255Z,1.75
2023-05-08T11:33:44.706Z,1.47
2023-05-08T11:34:43.915Z,1.67
2023-05-08T11:35:43.790Z,1.49
2023-05-08T11:36:43.639Z,1.58
2023-05-08T11:37:43.511Z,1.50
2023-05-08T11:38:43.399Z,1.68
2023-05-08T11:39:43.266Z,2.02
2023-05-08T11:40:43.142Z,1.24
2023-05-08T11:41:43.031Z,1.65
2023-05-08T11:42:42.897Z,1.21
2023-05-08T11:43:42.789Z,1.71
2023-05-08T11:44:42.682Z,1.79
2023-05-08T11:45:42.571Z,1.77
2023-05-08T11:46:42.445Z,2.23
2023-05-08T11:47:42.439Z,2.41
2023-05-08T11:48:42.202Z,1.86
2023-05-08T11:49:42.095Z,1.60
2023-05-08T11:50:41.966Z,1.90
2023-05-08T11:51:41.848Z,1.96
2023-05-08T11:52:41.745Z,1.53
2023-05-08T11:53:41.620Z,2.60
2023-05-08T11:54:41.539Z,3.37
2023-05-08T11:55:41.382Z,1.60
2023-05-08T11:56:41.243Z,1.37
2023-05-08T11:57:41.127Z,2.19
2023-05-08T11:58:41.014Z,1.36
2023-05-08T11:59:40.883Z,1.63
2023-05-08T12:00:40.834Z,1.63
2023-05-08T12:01:40.675Z,1.90
2023-05-08T12:02:40.641Z,1.38
2023-05-08T12:03:40.585Z,2.03
2023-05-08T12:04:40.293Z,2.41
2023-05-08T12:05:40.166Z,1.41
2023-05-08T12:06:40.042Z,1.58
2023-05-08T12:07:39.929Z,1.95
2023-05-08T12:08:39.809Z,1.76
2023-05-08T12:09:39.696Z,1.38
2023-05-08T12:10:39.592Z,1.87
2023-05-08T12:11:39.508Z,1.32
2023-05-08T12:12:39.483Z,1.74
2023-05-08T12:13:39.330Z,1.45
2023-05-08T12:14:39.248Z,1.57
2023-05-08T12:15:39.157Z,1.64
2023-05-08T12:16:39.093Z,1.85
2023-05-08T12:17:39.007Z,1.75
2023-05-08T12:18:39.867Z,1.71
2023-05-08T12:19:38.816Z,1.46
2023-05-08T12:20:38.751Z,1.41
2023-05-08T12:21:38.668Z,1.59
2023-05-08T12:22:38.586Z,1.83
2023-05-08T12:23:38.496Z,1.16
2023-05-08T12:24:38.428Z,1.70
2023-05-08T12:25:38.334Z,1.29
2023-05-08T12:26:38.253Z,1.28
2023-05-08T12:27:38.197Z,1.30
2023-05-08T12:28:38.091Z,1.35
2023-05-08T12:29:38.029Z,1.62
2023-05-08T12:30:37.938Z,1.77
2023-05-08T12:31:37.900Z,1.86
2023-05-08T12:32:37.777Z,1.83
2023-05-08T12:33:37.683Z,1.47
2023-05-08T12:34:37.589Z,1.46
2023-05-08T12:35:37.511Z,1.48
2023-05-08T12:36:37.437Z,1.69
2023-05-08T12:37:37.351Z,1.35
2023-05-08T12:38:37.269Z,1.52
2023-05-08T12:39:37.310Z,1.71
2023-05-08T12:40:37.115Z,1.49
2023-05-08T12:41:37.050Z,1.57
2023-05-08T12:42:36.970Z,1.39
2023-05-08T12:43:36.887Z,1.38
2023-05-08T12:44:36.811Z,1.29
2023-05-08T12:45:36.739Z,1.81
2023-05-08T12:46:36.688Z,1.78
2023-05-08T12:47:36.621Z,1.56
2023-05-08T12:48:36.520Z,1.43
2023-05-08T12:49:36.462Z,1.91
2023-05-08T12:50:36.371Z,1.66
2023-05-08T12:51:36.291Z,1.52
2023-05-08T12:52:36.209Z,1.20
2023-05-08T12:53:36.145Z,1.15
2023-05-08T12:54:36.054Z,1.64
2023-05-08T12:55:36.061Z,1.66
2023-05-08T12:56:35.887Z,1.93
2023-05-08T12:57:35.811Z,1.76
2023-05-08T12:58:35.758Z,1.48
2023-05-08T12:59:35.653Z,1.35
2023-05-08T13:00:35.587Z,1.68
2023-05-08T13:01:35.584Z,1.45
2023-05-08T13:02:39.355Z,1.40
2023-05-08T13:03:36.420Z,1.48
2023-05-08T13:04:35.290Z,1.62
2023-05-08T13:05:35.114Z,1.39
2023-05-08T13:06:34.996Z,1.73
2023-05-08T13:07:34.891Z,1.57
2023-05-08T13:08:34.771Z,1.29
2023-05-08T13:09:34.665Z,1.46
2023-05-08T13:10:34.554Z,1.37
2023-05-08T13:11:35.526Z,1.29
2023-05-08T13:12:34.322Z,2.15
2023-05-08T13:13:34.241Z,1.63
2023-05-08T13:14:34.097Z,1.39
2023-05-08T13:15:33.992Z,1.63
2023-05-08T13:16:33.910Z,1.45
2023-05-08T13:17:33.825Z,1.49
2023-05-08T13:18:33.665Z,1.79